Time;durP1;ratioP1;P1;durP2;ratioP2;P2;SDS_P1;SDS_P2;PMS_P1;PMS_P2;Temp;Humidity;BMP_temperature;BMP_pressure;BME280_temperature;BME280_humidity;BME280_pressure;Samples;Min_cycle;Max_cycle;Signal;HPM_P1;HPM_P2
2021/06/14 00:02:24;;;;;;;0.70;0.70;;;15.60;99.90;;;;;;4970845;28;20228;-68
2021/06/14 00:04:53;;;;;;;1.07;0.97;;;15.60;99.90;;;;;;4965797;28;20200;-68
2021/06/14 00:07:21;;;;;;;1.40;0.80;;;15.70;99.90;;;;;;4976331;28;20360;-69
2021/06/14 00:09:48;;;;;;;1.87;1.00;;;15.60;99.90;;;;;;4953989;28;20585;-68
2021/06/14 00:12:21;;;;;;;1.93;1.23;;;15.60;99.90;;;;;;4971374;28;20199;-68
2021/06/14 00:14:48;;;;;;;1.20;1.10;;;15.60;99.90;;;;;;4971644;28;20696;-68
2021/06/14 00:17:15;;;;;;;1.30;1.20;;;15.60;99.90;;;;;;4969775;28;20222;-69
2021/06/14 00:19:42;;;;;;;1.77;1.10;;;15.60;99.90;;;;;;4971071;28;20212;-69
2021/06/14 00:22:11;;;;;;;1.17;1.00;;;15.60;99.90;;;;;;4971259;28;20231;-68
2021/06/14 00:24:37;;;;;;;1.20;1.10;;;15.60;99.90;;;;;;4971809;28;20205;-68
2021/06/14 00:27:06;;;;;;;1.13;0.90;;;15.60;99.90;;;;;;4970689;28;20231;-68
2021/06/14 00:29:33;;;;;;;1.20;1.10;;;15.60;99.90;;;;;;4983135;28;20235;-68
2021/06/14 00:32:00;;;;;;;0.80;0.80;;;15.50;99.90;;;;;;4982437;28;20188;-69
2021/06/14 00:34:28;;;;;;;1.27;1.00;;;15.50;99.90;;;;;;4953010;28;20219;-68
2021/06/14 00:36:56;;;;;;;1.10;0.90;;;15.50;99.90;;;;;;4942059;28;20322;-68
2021/06/14 00:39:25;;;;;;;1.03;0.90;;;15.50;99.90;;;;;;4971416;28;20674;-68
2021/06/14 00:41:52;;;;;;;1.73;1.03;;;15.50;99.90;;;;;;4966471;28;20192;-68
2021/06/14 00:44:19;;;;;;;1.10;1.00;;;15.50;99.90;;;;;;4964781;28;20286;-69
2021/06/14 00:46:47;;;;;;;0.67;0.67;;;15.50;99.90;;;;;;4970169;28;20654;-69
2021/06/14 00:49:14;;;;;;;0.90;0.90;;;15.50;99.90;;;;;;4967932;28;20263;-69
2021/06/14 00:51:41;;;;;;;0.63;0.63;;;15.50;99.90;;;;;;4964073;28;20238;-69
2021/06/14 00:54:09;;;;;;;0.80;0.80;;;15.50;99.90;;;;;;4966954;28;20227;-69
2021/06/14 00:56:37;;;;;;;1.00;0.90;;;15.40;99.90;;;;;;4971300;28;20206;-69
2021/06/14 00:59:04;;;;;;;1.67;0.97;;;15.40;99.90;;;;;;4983903;28;20281;-69
2021/06/14 01:01:32;;;;;;;0.67;0.67;;;15.40;99.90;;;;;;4982459;28;20224;-68
2021/06/14 01:04:03;;;;;;;1.30;1.00;;;15.40;99.90;;;;;;4952723;28;20200;-68
2021/06/14 01:06:30;;;;;;;0.93;0.93;;;15.40;99.90;;;;;;4981127;28;20714;-69
2021/06/14 01:08:58;;;;;;;0.90;0.90;;;15.40;99.90;;;;;;4985334;28;20199;-68
2021/06/14 01:11:34;;;;;;;1.30;0.70;;;15.40;99.90;;;;;;4970784;28;20218;-68
2021/06/14 01:14:11;;;;;;;1.57;1.17;;;15.40;99.90;;;;;;4988339;28;20233;-67
2021/06/14 01:16:46;;;;;;;1.47;0.80;;;15.40;99.90;;;;;;4988505;28;20546;-68
2021/06/14 01:19:31;;;;;;;1.10;1.00;;;15.40;99.90;;;;;;4959978;28;20676;-68
2021/06/14 01:22:16;;;;;;;1.43;1.07;;;15.40;99.90;;;;;;4972187;28;20615;-69
2021/06/14 01:24:55;;;;;;;1.13;1.03;;;15.40;99.90;;;;;;4965959;28;20200;-68
2021/06/14 01:27:50;;;;;;;1.57;1.10;;;15.30;99.90;;;;;;4970285;28;20207;-69
2021/06/14 01:30:23;;;;;;;1.13;0.77;;;15.30;99.90;;;;;;4899842;29;20213;-67
2021/06/14 01:32:52;;;;;;;1.33;0.90;;;15.30;99.90;;;;;;4912689;29;20810;-69
2021/06/14 01:35:28;;;;;;;1.97;1.30;;;15.30;99.90;;;;;;4922670;29;20261;-68
2021/06/14 01:37:59;;;;;;;1.23;1.10;;;15.30;99.90;;;;;;4909934;29;20832;-68
2021/06/14 01:40:32;;;;;;;0.90;0.90;;;15.20;99.90;;;;;;4929162;29;20715;-69
2021/06/14 01:43:05;;;;;;;2.40;1.43;;;15.20;99.90;;;;;;4927390;29;20788;-68
2021/06/14 01:45:36;;;;;;;1.10;0.90;;;15.30;99.90;;;;;;4918794;29;20759;-68
2021/06/14 01:48:05;;;;;;;1.33;1.17;;;15.20;99.90;;;;;;4912971;29;20370;-68
2021/06/14 01:50:32;;;;;;;1.00;1.00;;;15.20;99.90;;;;;;4912095;29;20235;-68
2021/06/14 01:53:00;;;;;;;1.10;1.00;;;15.20;99.90;;;;;;4908246;29;20252;-69
2021/06/14 01:55:28;;;;;;;1.20;1.10;;;15.20;99.90;;;;;;4925405;29;20213;-69
2021/06/14 01:58:07;;;;;;;0.83;0.83;;;15.20;99.90;;;;;;4922866;29;20193;-69
2021/06/14 02:00:51;;;;;;;1.43;0.80;;;15.20;99.90;;;;;;4912627;29;20619;-69
2021/06/14 02:03:53;;;;;;;1.27;1.10;;;15.20;99.90;;;;;;4890674;29;20214;-68
2021/06/14 02:06:46;;;;;;;0.93;0.93;;;15.20;99.90;;;;;;4882891;29;20327;-68
2021/06/14 02:09:19;;;;;;;1.23;1.10;;;15.20;99.90;;;;;;4919424;29;20289;-68
2021/06/14 02:11:50;;;;;;;1.50;0.87;;;15.20;99.90;;;;;;4922743;29;20304;-68
2021/06/14 02:14:22;;;;;;;1.20;1.10;;;15.20;99.90;;;;;;4937195;29;20519;-68
2021/06/14 02:16:51;;;;;;;1.33;1.10;;;15.20;99.90;;;;;;4933054;29;20221;-68
2021/06/14 02:19:18;;;;;;;1.83;0.90;;;15.20;99.90;;;;;;4899014;29;20222;-68
2021/06/14 02:21:47;;;;;;;1.27;0.87;;;15.20;99.90;;;;;;4904810;29;20228;-68
2021/06/14 02:24:15;;;;;;;0.93;0.93;;;15.20;99.90;;;;;;4923390;29;20220;-68
2021/06/14 02:26:45;;;;;;;1.97;1.50;;;15.20;99.90;;;;;;4913251;29;20213;-69
2021/06/14 02:29:13;;;;;;;1.97;1.50;;;15.10;99.90;;;;;;4911711;29;20646;-69
2021/06/14 02:31:42;;;;;;;1.40;1.17;;;15.10;99.90;;;;;;4918450;29;20264;-69
2021/06/14 02:34:13;;;;;;;1.73;1.17;;;15.10;99.90;;;;;;4937910;29;20234;-68
2021/06/14 02:36:42;;;;;;;1.20;1.10;;;15.10;99.90;;;;;;4925646;29;20213;-67
2021/06/14 02:39:12;;;;;;;2.60;1.30;;;15.10;99.90;;;;;;4967326;28;20323;-68
2021/06/14 02:41:40;;;;;;;1.33;1.20;;;15.10;99.90;;;;;;4969605;28;20199;-68
2021/06/14 02:44:09;;;;;;;1.77;1.07;;;15.20;99.90;;;;;;4952130;28;20216;-68
2021/06/14 02:46:44;;;;;;;1.87;1.27;;;15.20;99.90;;;;;;4963940;28;20270;-69
2021/06/14 02:49:14;;;;;;;1.10;1.10;;;15.20;99.90;;;;;;4938866;28;20206;-68
2021/06/14 02:51:44;;;;;;;0.97;0.97;;;15.20;99.90;;;;;;4951547;28;20535;-68
2021/06/14 02:54:15;;;;;;;1.00;0.93;;;15.20;99.90;;;;;;4968022;28;20220;-68
2021/06/14 02:56:42;;;;;;;3.23;1.10;;;15.20;99.90;;;;;;4973052;28;20247;-69
2021/06/14 02:59:12;;;;;;;1.33;1.00;;;15.30;99.90;;;;;;4974981;28;20208;-68
2021/06/14 03:01:41;;;;;;;1.63;0.90;;;15.30;99.90;;;;;;4956356;28;20247;-69
2021/06/14 03:04:14;;;;;;;2.03;1.40;;;15.30;99.90;;;;;;4957940;28;20221;-68
2021/06/14 03:06:43;;;;;;;1.20;0.97;;;15.30;99.90;;;;;;4964601;28;20318;-68
2021/06/14 03:09:10;;;;;;;2.30;1.30;;;15.30;99.90;;;;;;4987002;28;20196;-68
2021/06/14 03:11:41;;;;;;;1.30;1.17;;;15.30;99.90;;;;;;4969157;28;20218;-69
2021/06/14 03:14:14;;;;;;;1.50;1.07;;;15.30;99.90;;;;;;4972368;28;20259;-68
2021/06/14 03:16:44;;;;;;;1.70;1.50;;;15.30;99.90;;;;;;4964800;28;20235;-68
2021/06/14 03:19:13;;;;;;;1.40;1.30;;;15.40;99.90;;;;;;4970056;28;20200;-69
2021/06/14 03:21:41;;;;;;;3.33;1.33;;;15.40;99.90;;;;;;4972536;28;20282;-69
2021/06/14 03:24:11;;;;;;;2.47;1.17;;;15.40;99.90;;;;;;4956667;28;20207;-69
2021/06/14 03:26:41;;;;;;;1.77;1.10;;;15.40;99.90;;;;;;4974796;28;20226;-68
2021/06/14 03:29:09;;;;;;;1.30;1.20;;;15.50;99.90;;;;;;4975904;28;20292;-68
2021/06/14 03:31:38;;;;;;;1.53;1.00;;;15.50;99.90;;;;;;4979165;28;20304;-69
2021/06/14 03:34:06;;;;;;;2.27;1.27;;;15.50;99.90;;;;;;4975425;28;20575;-68
2021/06/14 03:36:34;;;;;;;1.40;1.30;;;15.60;99.90;;;;;;4965594;28;20199;-69
2021/06/14 03:39:02;;;;;;;1.57;1.30;;;15.60;99.90;;;;;;4965646;28;20255;-68
2021/06/14 03:41:29;;;;;;;1.10;1.00;;;15.60;99.90;;;;;;4950759;29;20295;-68
2021/06/14 03:43:56;;;;;;;3.90;1.53;;;15.70;99.90;;;;;;4962837;28;20210;-69
2021/06/14 03:46:23;;;;;;;1.60;1.50;;;15.70;99.90;;;;;;4962431;28;20207;-69
2021/06/14 03:48:50;;;;;;;2.57;1.27;;;15.80;99.90;;;;;;4967485;28;20295;-68
2021/06/14 03:51:17;;;;;;;1.30;0.90;;;15.80;99.90;;;;;;4959286;28;20247;-68
2021/06/14 03:53:56;;;;;;;1.20;1.13;;;15.80;99.90;;;;;;4941625;29;20310;-69
2021/06/14 03:56:24;;;;;;;1.67;1.27;;;15.90;99.90;;;;;;4953104;29;20205;-69
2021/06/14 03:58:51;;;;;;;1.70;1.10;;;15.90;99.90;;;;;;4952303;29;20231;-67
2021/06/14 04:01:18;;;;;;;1.80;1.10;;;15.90;99.90;;;;;;4954557;28;20221;-68
2021/06/14 04:03:52;;;;;;;1.27;1.17;;;16.00;99.90;;;;;;4951354;29;20268;-68
2021/06/14 04:06:19;;;;;;;1.13;1.03;;;16.00;99.90;;;;;;4940130;29;20287;-68
2021/06/14 04:08:47;;;;;;;2.33;1.13;;;16.10;99.90;;;;;;4935302;29;20227;-68
2021/06/14 04:11:14;;;;;;;1.43;1.33;;;16.10;99.90;;;;;;4970040;28;20621;-68
2021/06/14 04:13:41;;;;;;;1.53;1.20;;;16.20;99.90;;;;;;4960653;28;20320;-68
2021/06/14 04:16:08;;;;;;;1.47;1.37;;;16.20;99.90;;;;;;4965621;28;20215;-68
2021/06/14 04:18:35;;;;;;;1.33;1.20;;;16.30;99.90;;;;;;4951792;29;20624;-68
2021/06/14 04:21:02;;;;;;;1.33;1.20;;;16.30;99.90;;;;;;4950919;28;20279;-68
2021/06/14 04:23:29;;;;;;;1.67;1.23;;;16.40;99.90;;;;;;4952480;29;20236;-68
2021/06/14 04:25:58;;;;;;;1.83;1.43;;;16.40;99.90;;;;;;4965069;28;20260;-68
2021/06/14 04:28:25;;;;;;;1.97;1.30;;;16.50;99.90;;;;;;4935063;29;20305;-68
2021/06/14 04:30:52;;;;;;;1.93;1.10;;;16.50;99.90;;;;;;4951023;28;20205;-68
2021/06/14 04:33:19;;;;;;;1.20;1.10;;;16.60;99.90;;;;;;4950800;29;20312;-68
2021/06/14 04:35:46;;;;;;;1.20;1.10;;;16.70;99.90;;;;;;4948456;28;20200;-68
2021/06/14 04:38:13;;;;;;;1.63;1.37;;;16.70;99.90;;;;;;4965034;28;20603;-68
2021/06/14 04:40:40;;;;;;;1.40;1.30;;;16.80;99.90;;;;;;4970951;28;20287;-68
2021/06/14 04:43:08;;;;;;;1.43;1.33;;;16.80;99.90;;;;;;4970750;28;20283;-68
2021/06/14 04:45:35;;;;;;;1.60;1.47;;;16.90;99.90;;;;;;4987352;28;20196;-69
2021/06/14 04:48:02;;;;;;;1.67;1.57;;;16.90;99.90;;;;;;4975902;28;20271;-68
2021/06/14 04:50:29;;;;;;;1.80;1.20;;;17.00;99.90;;;;;;4952840;28;20216;-68
2021/06/14 04:52:56;;;;;;;1.27;1.20;;;17.10;99.90;;;;;;4969282;28;20201;-68
2021/06/14 04:55:24;;;;;;;1.33;1.23;;;17.10;99.90;;;;;;4971702;28;20220;-68
2021/06/14 04:57:50;;;;;;;1.40;1.30;;;17.20;99.90;;;;;;4970812;28;20283;-68
2021/06/14 05:00:20;;;;;;;1.37;1.27;;;17.30;99.90;;;;;;4972977;28;20557;-69
2021/06/14 05:02:49;;;;;;;1.30;1.13;;;17.40;99.90;;;;;;4969798;28;20227;-69
2021/06/14 05:05:16;;;;;;;3.70;1.77;;;17.40;99.90;;;;;;4965432;28;20244;-68
2021/06/14 05:07:43;;;;;;;1.63;1.53;;;17.50;99.90;;;;;;4970201;28;20237;-68
2021/06/14 05:10:11;;;;;;;2.30;1.50;;;17.60;99.90;;;;;;4970681;28;20636;-68
2021/06/14 05:12:38;;;;;;;3.43;1.70;;;17.60;99.90;;;;;;4965043;28;20220;-68
2021/06/14 05:15:07;;;;;;;2.13;1.60;;;17.80;99.90;;;;;;4969714;28;20229;-68
2021/06/14 05:17:35;;;;;;;1.80;1.60;;;17.90;99.90;;;;;;4969380;28;20324;-68
2021/06/14 05:20:04;;;;;;;1.63;1.53;;;17.90;99.90;;;;;;4960061;28;20680;-68
2021/06/14 05:22:31;;;;;;;2.00;1.40;;;18.10;99.90;;;;;;4985773;28;20224;-69
2021/06/14 05:24:58;;;;;;;1.40;1.30;;;18.20;99.90;;;;;;4968277;28;20203;-68
2021/06/14 05:27:25;;;;;;;2.08;1.33;;;18.30;99.90;;;;;;4987803;28;20236;-68
2021/06/14 05:29:52;;;;;;;1.50;1.40;;;18.40;99.90;;;;;;4969850;28;20313;-68
2021/06/14 05:32:19;;;;;;;1.17;1.17;;;18.50;99.90;;;;;;4951306;28;20218;-68
2021/06/14 05:34:47;;;;;;;1.55;1.30;;;18.70;99.90;;;;;;4967194;28;20577;-69
2021/06/14 05:37:14;;;;;;;1.37;1.13;;;18.80;99.90;;;;;;4960893;28;20623;-68
2021/06/14 05:39:41;;;;;;;1.30;1.20;;;18.90;99.90;;;;;;4969037;28;20286;-70
2021/06/14 05:42:09;;;;;;;2.50;1.10;;;19.00;99.90;;;;;;4969504;28;20242;-68
2021/06/14 05:44:36;;;;;;;1.20;1.10;;;19.10;99.90;;;;;;4968981;28;20216;-68
2021/06/14 05:47:03;;;;;;;1.10;1.10;;;19.20;99.90;;;;;;4982412;28;20210;-68
2021/06/14 05:49:30;;;;;;;1.02;1.02;;;19.40;99.90;;;;;;4969706;28;20311;-68
2021/06/14 05:51:59;;;;;;;1.90;1.30;;;19.50;99.90;;;;;;4971059;28;20743;-69
2021/06/14 05:54:26;;;;;;;1.58;1.30;;;19.70;99.90;;;;;;4967171;28;20574;-69
2021/06/14 05:56:53;;;;;;;1.65;1.50;;;19.80;99.90;;;;;;4981901;28;20204;-68
2021/06/14 05:59:20;;;;;;;1.60;1.50;;;19.90;99.90;;;;;;4967447;28;20196;-69
2021/06/14 06:01:47;;;;;;;2.15;1.52;;;20.10;99.90;;;;;;4965408;28;20572;-68
2021/06/14 06:04:16;;;;;;;1.58;1.27;;;20.20;99.90;;;;;;4971194;28;20206;-68
2021/06/14 06:06:43;;;;;;;4.22;1.83;;;20.40;99.90;;;;;;4964836;28;20206;-68
2021/06/14 06:09:11;;;;;;;2.33;1.20;;;20.50;99.90;;;;;;4965116;28;20681;-68
2021/06/14 06:11:38;;;;;;;2.95;1.50;;;20.70;99.90;;;;;;4973131;28;20204;-69
2021/06/14 06:14:05;;;;;;;1.30;1.20;;;20.90;99.90;;;;;;4967898;28;20216;-68
2021/06/14 06:16:32;;;;;;;2.20;1.40;;;21.40;99.70;;;;;;4977758;28;20192;-68
2021/06/14 06:18:59;;;;;;;4.10;1.27;;;22.40;98.20;;;;;;4960010;28;20647;-70
2021/06/14 06:21:26;;;;;;;1.00;0.95;;;23.40;96.00;;;;;;4966055;28;20204;-69
2021/06/14 06:23:53;;;;;;;2.53;1.50;;;24.40;94.00;;;;;;4976902;28;20196;-70
2021/06/14 06:26:22;;;;;;;1.58;1.20;;;25.30;91.70;;;;;;4971786;28;20425;-69
2021/06/14 06:28:50;;;;;;;2.88;1.58;;;26.00;89.30;;;;;;4956787;28;20232;-69
2021/06/14 06:31:17;;;;;;;2.63;1.45;;;27.10;84.20;;;;;;4974533;28;20211;-70
2021/06/14 06:33:44;;;;;;;1.67;1.42;;;28.20;78.70;;;;;;4952364;28;20203;-70
2021/06/14 06:36:12;;;;;;;1.27;1.20;;;29.30;73.50;;;;;;4966085;28;20657;-70
2021/06/14 06:38:39;;;;;;;3.00;1.40;;;30.20;69.60;;;;;;4974078;28;20251;-71
2021/06/14 06:41:08;;;;;;;3.47;1.63;;;31.00;65.40;;;;;;4952206;28;20243;-71
2021/06/14 06:43:36;;;;;;;1.58;1.30;;;31.70;61.70;;;;;;4968516;28;20303;-72
2021/06/14 06:46:03;;;;;;;5.22;1.80;;;32.40;59.20;;;;;;4971371;28;20429;-69
2021/06/14 06:48:30;;;;;;;1.92;1.50;;;32.50;56.50;;;;;;4974108;28;20218;-70
2021/06/14 06:51:01;;;;;;;2.15;1.85;;;33.40;55.40;;;;;;4976904;28;20674;-70
2021/06/14 06:53:29;;;;;;;4.70;1.80;;;34.30;53.30;;;;;;4972568;28;20315;-69
2021/06/14 06:56:00;;;;;;;3.40;1.90;;;35.00;51.10;;;;;;4970448;28;20957;-69
2021/06/14 06:58:30;;;;;;;1.92;1.83;;;35.70;49.60;;;;;;4983597;28;20199;-70
2021/06/14 07:00:58;;;;;;;2.33;1.70;;;36.20;47.90;;;;;;4977792;28;20203;-70
2021/06/14 07:03:25;;;;;;;2.15;1.67;;;36.90;46.20;;;;;;4959646;28;20259;-70
2021/06/14 07:05:53;;;;;;;2.20;1.73;;;37.90;44.90;;;;;;4976746;28;20527;-70
2021/06/14 07:08:21;;;;;;;4.32;1.90;;;39.20;42.30;;;;;;4973979;28;20235;-69
2021/06/14 07:10:48;;;;;;;4.22;2.17;;;40.30;40.00;;;;;;4971928;28;20621;-70
2021/06/14 07:13:16;;;;;;;2.78;2.05;;;41.40;37.90;;;;;;4969624;28;20792;-70
2021/06/14 07:15:43;;;;;;;2.03;1.90;;;41.80;36.60;;;;;;4976813;28;20220;-70
2021/06/14 07:18:12;;;;;;;3.20;1.73;;;41.50;35.60;;;;;;4970935;28;20551;-70
2021/06/14 07:20:39;;;;;;;2.47;2.08;;;40.30;36.00;;;;;;4974772;28;20204;-70
2021/06/14 07:23:05;;;;;;;1.92;1.70;;;38.70;37.40;;;;;;4971427;28;20573;-70
2021/06/14 07:25:32;;;;;;;1.73;1.63;;;37.20;38.30;;;;;;4969030;28;20685;-70
2021/06/14 07:27:59;;;;;;;2.33;1.70;;;35.80;39.70;;;;;;4978110;28;20202;-69
2021/06/14 07:30:26;;;;;;;3.40;2.00;;;34.70;40.60;;;;;;4955442;28;20453;-69
2021/06/14 07:32:53;;;;;;;1.98;1.75;;;33.70;41.10;;;;;;4973033;28;20211;-69
2021/06/14 07:35:22;;;;;;;1.80;1.70;;;33.00;41.80;;;;;;4951509;28;20256;-69
2021/06/14 07:37:49;;;;;;;2.00;1.80;;;32.40;42.30;;;;;;4977884;28;20323;-69
2021/06/14 07:40:16;;;;;;;3.33;1.70;;;31.80;42.60;;;;;;4965964;28;20203;-70
2021/06/14 07:42:43;;;;;;;1.50;1.40;;;31.50;43.10;;;;;;4975462;28;20204;-69
2021/06/14 07:45:12;;;;;;;1.65;1.55;;;31.10;43.50;;;;;;4973128;28;20622;-68
2021/06/14 07:47:39;;;;;;;2.30;1.60;;;30.80;43.70;;;;;;4975431;28;20244;-70
2021/06/14 07:50:07;;;;;;;4.47;1.75;;;30.60;44.00;;;;;;4972571;28;20200;-70
2021/06/14 07:52:36;;;;;;;2.20;1.90;;;30.40;44.20;;;;;;4974481;28;20197;-70
2021/06/14 07:55:03;;;;;;;1.55;1.45;;;30.10;44.50;;;;;;4978298;28;20279;-70
2021/06/14 07:57:31;;;;;;;2.92;1.73;;;30.00;44.90;;;;;;4950724;28;20303;-70
2021/06/14 07:59:58;;;;;;;1.98;1.80;;;29.80;45.00;;;;;;4969781;28;20196;-70
2021/06/14 08:02:25;;;;;;;2.55;1.52;;;29.70;45.10;;;;;;4963087;28;20231;-70
2021/06/14 08:04:52;;;;;;;1.73;1.45;;;29.50;45.30;;;;;;4975383;28;20242;-68
2021/06/14 08:07:19;;;;;;;2.17;1.70;;;29.40;45.50;;;;;;4969737;28;20506;-69
2021/06/14 08:09:53;;;;;;;4.55;1.77;;;29.30;46.00;;;;;;4971911;28;20214;-69
2021/06/14 08:12:21;;;;;;;4.20;1.40;;;29.20;46.20;;;;;;4969045;28;20685;-69
2021/06/14 08:14:48;;;;;;;2.22;2.03;;;29.10;46.20;;;;;;4967648;28;20260;-68
2021/06/14 08:17:15;;;;;;;2.13;1.50;;;29.10;46.10;;;;;;4971660;28;20616;-69
2021/06/14 08:19:46;;;;;;;1.98;1.83;;;29.10;46.20;;;;;;4975474;28;20498;-70
2021/06/14 08:22:32;;;;;;;1.88;1.60;;;29.10;45.60;;;;;;4973512;28;20508;-69
2021/06/14 08:25:04;;;;;;;2.90;1.50;;;29.10;45.60;;;;;;4964915;28;20193;-69
2021/06/14 08:27:32;;;;;;;2.17;1.75;;;29.10;45.70;;;;;;4976620;28;20207;-69
2021/06/14 08:29:59;;;;;;;2.15;1.30;;;29.10;45.70;;;;;;4975097;28;20201;-69
2021/06/14 08:32:28;;;;;;;2.30;1.52;;;29.00;45.80;;;;;;4969813;28;20243;-69
2021/06/14 08:34:55;;;;;;;3.53;1.80;;;29.00;46.70;;;;;;4969426;28;20224;-69
2021/06/14 08:37:22;;;;;;;3.55;1.60;;;29.00;46.00;;;;;;4957121;28;20326;-69
2021/06/14 08:39:49;;;;;;;2.20;1.70;;;29.00;46.20;;;;;;4973833;28;20196;-70
2021/06/14 08:42:17;;;;;;;2.55;1.70;;;29.10;46.10;;;;;;4976001;28;20204;-70
2021/06/14 08:44:45;;;;;;;2.55;1.55;;;29.10;46.10;;;;;;4952894;28;20204;-70
2021/06/14 08:47:13;;;;;;;4.00;2.42;;;29.10;46.10;;;;;;4967121;28;20205;-69
2021/06/14 08:49:42;;;;;;;4.05;2.00;;;29.20;45.70;;;;;;4978044;28;20343;-70
2021/06/14 08:52:09;;;;;;;1.70;1.60;;;29.30;45.50;;;;;;4970554;28;20204;-70
2021/06/14 08:54:40;;;;;;;1.42;1.42;;;29.40;45.00;;;;;;4977203;28;20216;-69
2021/06/14 08:57:08;;;;;;;7.72;2.08;;;29.40;44.80;;;;;;4972481;28;20263;-69
2021/06/14 08:59:36;;;;;;;1.75;1.55;;;29.50;45.00;;;;;;4968368;28;20244;-69
2021/06/14 09:02:04;;;;;;;2.92;1.77;;;29.50;45.10;;;;;;4974637;28;20204;-70
2021/06/14 09:04:32;;;;;;;1.60;1.50;;;29.50;45.30;;;;;;4964373;28;20194;-70
2021/06/14 09:06:59;;;;;;;2.03;1.70;;;29.40;45.10;;;;;;4968581;28;20208;-69
2021/06/14 09:09:33;;;;;;;1.80;1.70;;;29.50;45.30;;;;;;4975411;28;20204;-70
2021/06/14 09:12:02;;;;;;;2.15;1.95;;;29.50;45.30;;;;;;4964173;28;20674;-70
2021/06/14 09:14:30;;;;;;;1.63;1.52;;;29.50;45.30;;;;;;4951039;28;20222;-70
2021/06/14 09:17:05;;;;;;;1.98;1.80;;;29.50;45.00;;;;;;4973238;28;20311;-71
2021/06/14 09:19:34;;;;;;;3.63;1.58;;;29.60;44.90;;;;;;4975482;28;20258;-71
2021/06/14 09:22:15;;;;;;;2.40;1.63;;;29.60;44.60;;;;;;4971540;28;20728;-71
2021/06/14 09:24:54;;;;;;;1.60;1.50;;;29.50;44.20;;;;;;4967788;28;20203;-70
2021/06/14 09:27:29;;;;;;;1.98;1.60;;;29.60;44.20;;;;;;4967515;28;20231;-71
2021/06/14 09:29:57;;;;;;;2.28;1.60;;;29.70;44.20;;;;;;4971006;28;20600;-70
2021/06/14 09:32:25;;;;;;;1.95;1.75;;;29.70;44.40;;;;;;4976982;28;20690;-70
2021/06/14 09:34:53;;;;;;;1.80;1.70;;;29.60;44.10;;;;;;4971594;28;20779;-70
2021/06/14 09:37:21;;;;;;;2.58;1.98;;;29.70;44.20;;;;;;4965717;28;20617;-69
2021/06/14 09:39:49;;;;;;;2.28;2.08;;;29.70;44.10;;;;;;4972752;28;20208;-71
2021/06/14 09:42:18;;;;;;;1.65;1.55;;;29.70;44.10;;;;;;4951681;28;20280;-69
2021/06/14 09:44:46;;;;;;;2.40;2.17;;;29.70;44.10;;;;;;4969230;28;20287;-70
2021/06/14 09:47:14;;;;;;;2.35;1.88;;;29.70;44.00;;;;;;4969898;28;20308;-69
2021/06/14 09:49:55;;;;;;;2.33;1.90;;;29.80;44.10;;;;;;4955873;28;20212;-70
2021/06/14 09:52:24;;;;;;;5.30;1.77;;;29.70;44.10;;;;;;4972011;28;20207;-70
2021/06/14 09:54:51;;;;;;;3.28;2.17;;;29.80;44.20;;;;;;4964808;28;20200;-69
2021/06/14 09:57:26;;;;;;;2.58;1.73;;;29.80;44.80;;;;;;4952785;28;20420;-69
2021/06/14 09:59:54;;;;;;;2.30;2.10;;;29.70;45.40;;;;;;4973530;28;20871;-71
2021/06/14 10:02:21;;;;;;;2.83;1.98;;;29.60;46.00;;;;;;4965509;28;20791;-66
2021/06/14 10:04:53;;;;;;;3.10;1.45;;;29.50;46.80;;;;;;4970895;28;20909;-65
2021/06/14 10:07:21;;;;;;;4.35;1.60;;;29.50;47.00;;;;;;4967233;28;20909;-66
2021/06/14 10:09:50;;;;;;;1.75;1.65;;;29.40;47.30;;;;;;4971820;28;20193;-66
2021/06/14 10:12:19;;;;;;;3.17;2.00;;;29.50;47.60;;;;;;4967086;28;20667;-67
2021/06/14 10:14:51;;;;;;;1.67;1.58;;;29.40;48.00;;;;;;4969261;28;20246;-65
2021/06/14 10:17:31;;;;;;;2.15;1.95;;;29.30;48.10;;;;;;4950662;28;20299;-67
2021/06/14 10:20:11;;;;;;;2.88;1.60;;;29.20;48.10;;;;;;4967970;28;20539;-68
2021/06/14 10:22:38;;;;;;;2.70;1.90;;;29.10;48.40;;;;;;4970688;28;20291;-71
2021/06/14 10:25:08;;;;;;;5.53;2.08;;;29.10;48.70;;;;;;4973051;28;20272;-67
2021/06/14 10:27:35;;;;;;;3.22;2.28;;;29.00;49.20;;;;;;4974944;28;20292;-67
2021/06/14 10:30:05;;;;;;;6.18;2.63;;;28.90;49.90;;;;;;4972162;28;20223;-67
2021/06/14 10:32:34;;;;;;;7.28;2.53;;;28.80;50.70;;;;;;4959205;28;20311;-65
2021/06/14 10:35:01;;;;;;;8.13;2.92;;;28.60;51.30;;;;;;4971330;28;20225;-65
2021/06/14 10:37:31;;;;;;;3.95;2.47;;;28.40;51.70;;;;;;4979193;28;20236;-67
2021/06/14 10:39:59;;;;;;;5.57;2.53;;;28.20;52.10;;;;;;4979065;28;20204;-66
2021/06/14 10:42:27;;;;;;;6.53;2.50;;;28.10;52.50;;;;;;4971779;28;20283;-66
2021/06/14 10:44:54;;;;;;;3.50;2.13;;;28.00;52.90;;;;;;4978952;28;20207;-65
2021/06/14 10:47:21;;;;;;;3.90;2.22;;;27.90;53.30;;;;;;4967536;28;20300;-65
2021/06/14 10:49:55;;;;;;;6.68;2.50;;;27.90;53.90;;;;;;4954278;28;20342;-66
2021/06/14 10:52:22;;;;;;;5.18;2.78;;;27.90;54.50;;;;;;4980220;28;20212;-66
2021/06/14 10:54:50;;;;;;;7.20;2.50;;;27.90;54.80;;;;;;4972598;28;20197;-66
2021/06/14 10:57:19;;;;;;;8.20;3.67;;;27.80;55.00;;;;;;4969448;28;20200;-69
2021/06/14 10:59:47;;;;;;;7.32;2.90;;;27.80;55.30;;;;;;4969041;28;20213;-71
2021/06/14 11:02:18;;;;;;;11.00;3.15;;;27.80;55.30;;;;;;4965744;28;20200;-70
2021/06/14 11:04:45;;;;;;;4.63;2.85;;;27.80;55.50;;;;;;4967432;28;20626;-70
2021/06/14 11:07:12;;;;;;;4.10;3.13;;;27.70;55.40;;;;;;4973716;28;20203;-70
2021/06/14 11:09:41;;;;;;;7.07;3.00;;;27.50;55.80;;;;;;4975292;28;20285;-70
2021/06/14 11:12:11;;;;;;;11.13;3.17;;;27.50;56.30;;;;;;4973046;28;20200;-69
2021/06/14 11:14:41;;;;;;;5.03;2.78;;;27.50;56.50;;;;;;4977896;28;20896;-69
2021/06/14 11:17:23;;;;;;;5.43;2.80;;;27.60;56.70;;;;;;4969243;28;20524;-71
2021/06/14 11:19:52;;;;;;;5.82;3.05;;;27.60;56.60;;;;;;4971405;28;20554;-70
2021/06/14 11:22:20;;;;;;;4.60;3.05;;;27.50;56.70;;;;;;4977505;28;20207;-70
2021/06/14 11:24:48;;;;;;;7.57;2.83;;;27.50;56.80;;;;;;4966889;28;20275;-71
2021/06/14 11:27:16;;;;;;;7.63;3.33;;;27.40;56.70;;;;;;4969761;28;20189;-70
2021/06/14 11:29:48;;;;;;;5.43;3.22;;;27.20;56.50;;;;;;4974974;28;20248;-70
2021/06/14 11:32:19;;;;;;;6.05;3.10;;;27.00;56.90;;;;;;4970747;28;20510;-70
2021/06/14 11:34:48;;;;;;;7.07;3.55;;;26.80;57.30;;;;;;4969479;28;20202;-70
2021/06/14 11:37:16;;;;;;;12.65;3.33;;;26.70;57.60;;;;;;4949701;28;20264;-70
2021/06/14 11:39:44;;;;;;;9.23;3.40;;;26.60;57.80;;;;;;4968283;28;20213;-70
2021/06/14 11:42:14;;;;;;;7.70;3.03;;;26.50;58.10;;;;;;4971742;28;20197;-70
2021/06/14 11:44:56;;;;;;;8.05;3.83;;;26.40;58.60;;;;;;4956792;28;20275;-70
2021/06/14 11:47:26;;;;;;;8.90;3.03;;;26.50;58.50;;;;;;4972709;28;20287;-70
2021/06/14 11:50:00;;;;;;;8.52;3.30;;;26.80;58.30;;;;;;4973368;28;20554;-70
2021/06/14 11:52:32;;;;;;;11.43;3.30;;;27.50;57.80;;;;;;4974545;28;20260;-70
2021/06/14 11:55:00;;;;;;;5.50;2.92;;;28.20;56.60;;;;;;4968137;28;20283;-70
2021/06/14 11:57:29;;;;;;;8.13;3.90;;;28.90;55.30;;;;;;4970906;28;20324;-70
2021/06/14 11:59:58;;;;;;;14.25;3.40;;;29.40;54.10;;;;;;4977412;28;20275;-70
2021/06/14 12:02:27;;;;;;;14.05;3.50;;;29.70;53.50;;;;;;4976445;28;20590;-70
2021/06/14 12:04:56;;;;;;;10.20;3.97;;;29.80;53.20;;;;;;4955981;28;20288;-70
2021/06/14 12:07:28;;;;;;;5.43;3.00;;;30.00;52.80;;;;;;4975866;28;20200;-70
2021/06/14 12:09:55;;;;;;;11.05;3.17;;;30.20;52.60;;;;;;4969226;28;20197;-71
2021/06/14 12:12:22;;;;;;;5.88;3.28;;;30.30;52.00;;;;;;4972522;28;20200;-70
2021/06/14 12:14:53;;;;;;;8.70;3.53;;;30.40;51.80;;;;;;4951788;28;20291;-70
2021/06/14 12:17:28;;;;;;;8.13;3.38;;;30.30;51.70;;;;;;4969404;28;20303;-70
2021/06/14 12:19:55;;;;;;;8.02;3.13;;;30.20;51.70;;;;;;4971235;28;20200;-70
2021/06/14 12:22:24;;;;;;;6.82;3.50;;;30.00;52.00;;;;;;4977100;28;20196;-71
2021/06/14 12:24:52;;;;;;;13.30;3.78;;;29.80;52.10;;;;;;4970490;28;20610;-71
2021/06/14 12:27:20;;;;;;;8.73;3.17;;;29.60;52.20;;;;;;4968401;28;20997;-70
2021/06/14 12:29:56;;;;;;;3.83;3.20;;;29.30;52.80;;;;;;4972432;28;20223;-70
2021/06/14 12:32:24;;;;;;;3.75;3.20;;;29.00;53.40;;;;;;4972089;28;20225;-70
2021/06/14 12:34:52;;;;;;;4.63;3.50;;;28.70;53.60;;;;;;4953664;28;20661;-71
2021/06/14 12:37:22;;;;;;;10.10;3.30;;;28.30;54.30;;;;;;4949645;28;20252;-70
2021/06/14 12:40:01;;;;;;;7.38;3.38;;;28.00;55.10;;;;;;4971676;28;20220;-70
2021/06/14 12:42:29;;;;;;;6.10;3.50;;;27.70;55.70;;;;;;4957106;28;20207;-70
2021/06/14 12:44:59;;;;;;;6.40;3.33;;;27.50;56.30;;;;;;4974526;28;20231;-70
2021/06/14 12:47:28;;;;;;;6.32;3.78;;;27.20;57.70;;;;;;4954654;28;20745;-70
2021/06/14 12:49:56;;;;;;;19.73;4.18;;;26.90;57.90;;;;;;4973546;28;20291;-71
2021/06/14 12:52:25;;;;;;;13.50;3.47;;;26.60;58.60;;;;;;4975807;28;20210;-71
2021/06/14 12:54:52;;;;;;;9.00;3.88;;;26.40;59.30;;;;;;4951452;28;20245;-70
2021/06/14 12:57:24;;;;;;;5.25;2.65;;;26.10;60.00;;;;;;4977305;28;20212;-68